createdAt,value
2019-02-10T00:00:39.892Z,5.67
2019-02-10T00:03:10.230Z,12.47
2019-02-10T00:05:40.114Z,11.43
2019-02-10T00:08:10.366Z,11.83
2019-02-10T00:10:40.218Z,11.40
2019-02-10T00:13:45.362Z,7.47
2019-02-10T00:16:20.772Z,7.43
2019-02-10T00:18:50.641Z,12.53
2019-02-10T00:21:20.483Z,6.00
2019-02-10T00:23:50.448Z,7.97
2019-02-10T00:26:20.321Z,8.60
2019-02-10T00:28:50.491Z,7.87
2019-02-10T00:31:20.337Z,7.67
2019-02-10T00:33:50.309Z,10.43
2019-02-10T00:36:20.203Z,6.67
2019-02-10T00:38:50.304Z,7.37
2019-02-10T00:41:20.165Z,10.30
2019-02-10T00:43:50.063Z,11.13
2019-02-10T00:46:19.961Z,10.07
2019-02-10T00:48:50.071Z,7.37
2019-02-10T00:51:19.922Z,6.93
2019-02-10T00:53:49.808Z,11.00
2019-02-10T00:56:19.663Z,10.23
2019-02-10T00:58:49.505Z,6.93
2019-02-10T01:01:19.365Z,3.53
2019-02-10T01:03:49.495Z,7.30
2019-02-10T01:06:19.628Z,11.03
2019-02-10T01:08:49.486Z,5.53
2019-02-10T01:11:19.849Z,10.63
2019-02-10T01:13:50.059Z,8.63
2019-02-10T01:16:19.935Z,9.40
2019-02-10T01:19:21.268Z,10.03
2019-02-10T01:21:51.134Z,10.43
2019-02-10T01:24:21.567Z,9.53
2019-02-10T01:26:51.462Z,10.20
2019-02-10T01:29:21.301Z,5.50
2019-02-10T01:31:51.268Z,10.83
2019-02-10T01:34:21.225Z,7.27
2019-02-10T01:36:51.575Z,9.47
2019-02-10T01:39:23.190Z,12.40
2019-02-10T01:41:53.318Z,7.97
2019-02-10T01:44:23.678Z,13.93
2019-02-10T01:46:53.622Z,10.47
2019-02-10T01:49:23.481Z,8.00
2019-02-10T01:51:53.313Z,10.23
2019-02-10T01:54:23.171Z,8.57
2019-02-10T01:56:53.056Z,14.87
2019-02-10T01:59:23.031Z,10.33
2019-02-10T02:01:52.915Z,13.03
2019-02-10T02:04:22.768Z,27.57
2019-02-10T02:06:57.699Z,16.37
2019-02-10T02:09:24.709Z,15.97
2019-02-10T02:11:54.583Z,23.00
2019-02-10T02:14:24.416Z,8.03
2019-02-10T02:16:54.277Z,10.63
2019-02-10T02:19:24.182Z,18.13
2019-02-10T02:21:54.135Z,13.77
2019-02-10T02:24:24.029Z,10.63
2019-02-10T02:26:54.188Z,14.17
2019-02-10T02:29:24.049Z,15.70
2019-02-10T02:31:53.938Z,15.70
2019-02-10T02:34:24.283Z,12.80
2019-02-10T02:36:54.157Z,8.40
2019-02-10T02:39:24.655Z,19.10
2019-02-10T02:41:54.520Z,11.93
2019-02-10T02:44:24.391Z,13.33
2019-02-10T02:46:54.275Z,9.07
2019-02-10T02:49:54.349Z,8.50
2019-02-10T02:52:27.349Z,7.73
2019-02-10T02:54:58.019Z,10.23
2019-02-10T02:57:28.470Z,11.37
2019-02-10T02:59:58.689Z,7.40
2019-02-10T03:02:28.831Z,16.90
2019-02-10T03:04:59.818Z,17.13
2019-02-10T03:07:30.046Z,16.57
2019-02-10T03:10:00.546Z,13.93
2019-02-10T03:12:31.005Z,14.83
2019-02-10T03:15:01.477Z,12.00
2019-02-10T03:17:31.879Z,15.13
2019-02-10T03:20:02.603Z,19.60
2019-02-10T03:22:32.776Z,16.60
2019-02-10T03:25:03.235Z,11.60
2019-02-10T03:27:33.693Z,13.53
2019-02-10T03:30:04.316Z,12.43
2019-02-10T03:32:34.501Z,16.83
2019-02-10T03:35:05.802Z,13.47
2019-02-10T03:37:35.761Z,11.63
2019-02-10T03:40:06.674Z,13.50
2019-02-10T03:42:37.376Z,14.00
2019-02-10T03:45:07.799Z,15.40
2019-02-10T03:47:38.265Z,26.37
2019-02-10T03:50:08.591Z,11.70
2019-02-10T03:52:39.374Z,15.97
2019-02-10T03:55:10.112Z,16.00
2019-02-10T03:57:40.790Z,16.83
2019-02-10T04:00:11.339Z,19.23
2019-02-10T04:02:41.560Z,16.33
2019-02-10T04:05:12.400Z,18.47
2019-02-10T04:07:42.394Z,19.27
2019-02-10T04:10:13.054Z,13.30
2019-02-10T04:12:43.491Z,19.50
2019-02-10T04:15:14.006Z,14.37
2019-02-10T04:17:44.778Z,17.20
2019-02-10T04:20:15.497Z,29.30
2019-02-10T04:22:46.222Z,19.87
2019-02-10T04:25:16.883Z,22.27
2019-02-10T04:27:46.798Z,15.97
2019-02-10T04:30:17.030Z,9.57
2019-02-10T04:32:47.948Z,13.63
2019-02-10T04:35:18.367Z,13.17
2019-02-10T04:37:48.853Z,20.67
2019-02-10T04:40:18.819Z,20.93
2019-02-10T04:42:49.490Z,11.70
2019-02-10T04:45:20.249Z,16.60
2019-02-10T04:47:50.971Z,11.17
2019-02-10T04:50:21.174Z,26.53
2019-02-10T04:52:51.627Z,16.87
2019-02-10T04:55:21.591Z,18.80
2019-02-10T04:57:52.085Z,19.93
2019-02-10T05:00:22.531Z,13.87
2019-02-10T05:02:52.968Z,20.10
2019-02-10T05:05:23.649Z,12.63
2019-02-10T05:07:54.826Z,18.07
2019-02-10T05:10:25.601Z,18.27
2019-02-10T05:12:56.080Z,15.67
2019-02-10T05:15:26.023Z,22.10
2019-02-10T05:17:56.697Z,17.60
2019-02-10T05:20:27.627Z,15.70
2019-02-10T05:22:58.354Z,17.33
2019-02-10T05:25:28.802Z,11.77
2019-02-10T05:27:59.483Z,18.17
2019-02-10T05:30:29.966Z,15.30
2019-02-10T05:32:59.913Z,10.83
2019-02-10T05:35:30.345Z,11.43
2019-02-10T05:38:04.183Z,19.10
2019-02-10T05:40:32.806Z,18.07
2019-02-10T05:43:03.016Z,13.93
2019-02-10T05:45:33.538Z,18.60
2019-02-10T05:48:03.947Z,8.63
2019-02-10T05:50:34.436Z,13.07
2019-02-10T05:53:04.640Z,11.23
2019-02-10T05:55:34.794Z,11.37
2019-02-10T05:58:05.328Z,11.37
2019-02-10T06:00:36.520Z,13.87
2019-02-10T06:03:06.935Z,12.00
2019-02-10T06:05:37.637Z,13.47
2019-02-10T06:08:13.543Z,13.20
2019-02-10T06:10:41.320Z,8.87
2019-02-10T06:13:11.795Z,12.53
2019-02-10T06:15:42.250Z,23.13
2019-02-10T06:18:12.969Z,12.90
2019-02-10T06:20:44.393Z,16.20
2019-02-10T06:23:14.851Z,15.63
2019-02-10T06:25:45.044Z,16.30
2019-02-10T06:28:15.777Z,15.43
2019-02-10T06:30:45.969Z,12.37
2019-02-10T06:33:16.378Z,15.70
2019-02-10T06:35:46.895Z,17.23
2019-02-10T06:38:22.461Z,13.40
2019-02-10T06:40:49.072Z,19.60
2019-02-10T06:43:19.550Z,18.70
2019-02-10T06:45:50.007Z,19.33
2019-02-10T06:48:20.516Z,24.30
2019-02-10T06:50:50.423Z,16.33
2019-02-10T06:53:21.141Z,14.60
2019-02-10T06:55:51.819Z,15.07
2019-02-10T06:58:22.528Z,13.90
2019-02-10T07:01:04.103Z,14.87
2019-02-10T07:03:52.604Z,11.70
2019-02-10T07:06:23.189Z,15.33
2019-02-10T07:08:54.021Z,15.80
2019-02-10T07:11:24.469Z,14.30
2019-02-10T07:14:00.747Z,15.67
2019-02-10T07:16:54.242Z,23.80
2019-02-10T07:20:47.614Z,22.60
2019-02-10T07:24:35.205Z,16.50
2019-02-10T07:27:33.345Z,22.17
2019-02-10T07:30:47.539Z,21.97
2019-02-10T07:34:06.054Z,11.93
2019-02-10T07:37:28.656Z,12.13
2019-02-10T07:40:32.584Z,17.87
2019-02-10T07:43:23.854Z,16.50
2019-02-10T07:46:51.573Z,17.83
2019-02-10T07:49:43.427Z,15.97
2019-02-10T07:52:35.357Z,16.20
2019-02-10T07:55:50.138Z,15.03
2019-02-10T07:59:09.096Z,22.20
2019-02-10T08:02:13.854Z,20.40
2019-02-10T08:05:25.838Z,21.57
2019-02-10T08:08:46.195Z,10.10
2019-02-10T08:12:21.003Z,16.47
2019-02-10T08:15:15.658Z,14.17
2019-02-10T08:18:20.148Z,21.80
2019-02-10T08:21:32.333Z,26.03
2019-02-10T08:24:34.365Z,19.00
2019-02-10T08:27:57.689Z,25.00
2019-02-10T08:31:16.514Z,13.30
2019-02-10T08:34:08.544Z,22.33
2019-02-10T08:37:22.671Z,20.67
2019-02-10T08:40:50.823Z,10.83
2019-02-10T08:43:58.640Z,17.33
2019-02-10T08:47:15.870Z,12.90
2019-02-10T08:50:16.562Z,10.93
2019-02-10T08:52:58.709Z,24.50
2019-02-10T08:55:29.366Z,10.40
2019-02-10T08:58:00.046Z,13.00
2019-02-10T09:00:29.992Z,10.23
2019-02-10T09:03:00.382Z,10.63
2019-02-10T09:05:30.624Z,16.53
2019-02-10T09:08:00.543Z,13.83
2019-02-10T09:10:30.942Z,14.30
2019-02-10T09:13:01.120Z,11.30
2019-02-10T09:15:31.271Z,14.60
2019-02-10T09:18:01.648Z,12.10
2019-02-10T09:20:32.289Z,15.50
2019-02-10T09:23:02.734Z,9.67
2019-02-10T09:25:33.152Z,13.53
2019-02-10T09:28:03.088Z,8.20
2019-02-10T09:30:33.256Z,8.73
2019-02-10T09:33:03.394Z,11.80
2019-02-10T09:35:34.291Z,8.63
2019-02-10T09:38:04.189Z,14.17
2019-02-10T09:40:34.642Z,5.87
2019-02-10T09:43:04.887Z,7.27
2019-02-10T09:45:35.564Z,10.83
2019-02-10T09:48:05.820Z,8.00
2019-02-10T09:50:35.997Z,8.17
2019-02-10T09:53:05.928Z,10.00
2019-02-10T09:55:36.084Z,10.43
2019-02-10T09:58:06.508Z,11.70
2019-02-10T10:00:36.974Z,10.87
2019-02-10T10:03:12.864Z,10.30
2019-02-10T10:05:43.152Z,8.30
2019-02-10T10:08:14.925Z,11.50
2019-02-10T10:10:45.621Z,8.60
2019-02-10T10:13:15.827Z,5.80
2019-02-10T10:15:46.010Z,5.77
2019-02-10T10:18:16.484Z,6.77
2019-02-10T10:20:46.924Z,3.70
2019-02-10T10:23:16.997Z,6.90
2019-02-10T10:25:46.894Z,6.43
2019-02-10T10:28:17.391Z,4.73
2019-02-10T10:30:47.412Z,3.97
2019-02-10T10:33:17.647Z,3.33
2019-02-10T10:35:47.858Z,2.33
2019-02-10T10:38:17.813Z,6.13
2019-02-10T10:40:48.890Z,2.80
2019-02-10T10:43:20.135Z,4.63
2019-02-10T10:45:50.139Z,6.53
2019-02-10T10:48:20.128Z,2.43
2019-02-10T10:50:50.966Z,5.53
2019-02-10T10:53:21.494Z,4.60
2019-02-10T10:55:51.427Z,4.53
2019-02-10T10:58:21.413Z,5.47
2019-02-10T11:00:51.554Z,6.40
2019-02-10T11:03:21.958Z,3.77
2019-02-10T11:05:51.879Z,3.93
2019-02-10T11:08:22.055Z,9.67
2019-02-10T11:10:52.187Z,3.07
2019-02-10T11:13:22.339Z,2.87
2019-02-10T11:15:52.270Z,3.53
2019-02-10T11:18:22.935Z,2.70
2019-02-10T11:20:52.830Z,13.73
2019-02-10T11:23:22.995Z,2.20
2019-02-10T11:25:52.922Z,7.50
2019-02-10T11:28:23.469Z,4.43
2019-02-10T11:30:53.877Z,3.43
2019-02-10T11:33:23.798Z,3.80
2019-02-10T11:35:53.682Z,1.30
2019-02-10T11:38:23.887Z,1.90
2019-02-10T11:40:54.016Z,1.40
2019-02-10T11:43:25.324Z,4.07
2019-02-10T11:45:55.365Z,1.30
2019-02-10T11:48:25.519Z,4.10
2019-02-10T11:50:55.457Z,3.37
2019-02-10T11:53:26.006Z,1.50
2019-02-10T11:55:56.034Z,1.83
2019-02-10T11:58:26.361Z,1.33
2019-02-10T12:00:56.541Z,2.77
2019-02-10T12:03:26.986Z,2.53
2019-02-10T12:05:57.198Z,1.80
2019-02-10T12:08:35.332Z,1.20
2019-02-10T12:10:59.492Z,0.90
2019-02-10T12:13:29.424Z,1.13
2019-02-10T12:15:59.404Z,1.80
2019-02-10T12:18:29.525Z,1.27
2019-02-10T12:20:59.946Z,1.67
2019-02-10T12:23:30.105Z,1.43
2019-02-10T12:26:00.400Z,1.87
2019-02-10T12:28:30.378Z,1.10
2019-02-10T12:31:00.537Z,1.10
2019-02-10T12:33:30.551Z,3.17
2019-02-10T12:36:00.695Z,2.70
2019-02-10T12:38:30.849Z,1.30
2019-02-10T12:41:01.519Z,1.77
2019-02-10T12:43:31.511Z,0.87
2019-02-10T12:46:01.946Z,1.00
2019-02-10T12:48:32.361Z,1.93
2019-02-10T12:51:02.612Z,1.67
2019-02-10T12:53:33.040Z,1.07
2019-02-10T12:56:03.205Z,1.60
2019-02-10T12:58:33.382Z,1.87
2019-02-10T13:01:03.280Z,2.60
2019-02-10T13:03:33.450Z,1.70
2019-02-10T13:06:03.393Z,1.53
2019-02-10T13:08:34.152Z,1.90
2019-02-10T13:11:04.564Z,2.30
2019-02-10T13:13:34.512Z,2.10
2019-02-10T13:16:04.512Z,2.00
2019-02-10T13:18:35.305Z,3.67
2019-02-10T13:21:05.585Z,2.77
2019-02-10T13:23:35.517Z,2.43
2019-02-10T13:26:05.969Z,2.53
2019-02-10T13:28:36.212Z,1.60
2019-02-10T13:31:06.458Z,1.53
2019-02-10T13:33:36.601Z,1.33
2019-02-10T13:36:06.828Z,1.73
2019-02-10T13:38:36.988Z,1.20
2019-02-10T13:41:06.991Z,1.07
2019-02-10T13:43:37.104Z,1.40
2019-02-10T13:46:07.259Z,1.20
2019-02-10T13:48:37.442Z,1.83
2019-02-10T13:51:07.648Z,2.00
2019-02-10T13:53:37.864Z,1.40
2019-02-10T13:56:08.191Z,1.57
2019-02-10T13:58:41.040Z,2.80
2019-02-10T14:01:11.551Z,1.23
2019-02-10T14:03:42.278Z,1.23
2019-02-10T14:06:12.707Z,0.80
2019-02-10T14:08:42.670Z,1.20
2019-02-10T14:11:13.110Z,1.20
2019-02-10T14:13:43.300Z,0.90
2019-02-10T14:16:14.336Z,1.40
2019-02-10T14:18:44.801Z,2.80
2019-02-10T14:21:15.015Z,1.17
2019-02-10T14:23:45.525Z,1.23
2019-02-10T14:26:16.080Z,1.57
2019-02-10T14:28:46.343Z,1.03
2019-02-10T14:31:16.621Z,1.30
2019-02-10T14:33:46.581Z,2.77
2019-02-10T14:36:16.578Z,1.70
2019-02-10T14:38:46.548Z,1.30
2019-02-10T14:41:16.486Z,1.00
2019-02-10T14:43:46.979Z,4.20
2019-02-10T14:46:17.018Z,1.50
2019-02-10T14:48:47.207Z,4.20
2019-02-10T14:51:17.939Z,1.17
2019-02-10T14:53:50.609Z,1.87
2019-02-10T14:56:23.725Z,2.10
2019-02-10T14:58:53.844Z,2.47
2019-02-10T15:01:23.705Z,1.93
2019-02-10T15:03:53.591Z,2.67
2019-02-10T15:06:23.542Z,1.70
2019-02-10T15:08:53.434Z,2.30
2019-02-10T15:11:23.272Z,2.07
2019-02-10T15:13:53.148Z,2.07
2019-02-10T15:16:23.217Z,3.03
2019-02-10T15:18:53.313Z,2.00
2019-02-10T15:21:23.190Z,3.70
2019-02-10T15:23:53.089Z,1.77
2019-02-10T15:26:22.966Z,3.00
2019-02-10T15:28:52.837Z,2.07
2019-02-10T15:31:22.706Z,2.20
2019-02-10T15:33:52.563Z,3.03
2019-02-10T15:36:22.881Z,1.83
2019-02-10T15:38:52.996Z,3.37
2019-02-10T15:41:23.097Z,1.70
2019-02-10T15:43:53.417Z,1.57
2019-02-10T15:46:23.521Z,1.30
2019-02-10T15:48:53.607Z,1.80
2019-02-10T15:51:31.553Z,2.67
2019-02-10T15:53:55.539Z,1.77
2019-02-10T15:56:25.429Z,2.03
2019-02-10T15:58:55.307Z,1.57
2019-02-10T16:01:25.187Z,1.77
2019-02-10T16:03:55.328Z,1.17
2019-02-10T16:06:25.686Z,1.17
2019-02-10T16:08:55.804Z,1.30
2019-02-10T16:11:25.888Z,1.83
2019-02-10T16:13:55.894Z,1.50
2019-02-10T16:16:25.741Z,1.40
2019-02-10T16:18:56.170Z,1.20
2019-02-10T16:21:26.330Z,2.70
2019-02-10T16:23:56.225Z,1.53
2019-02-10T16:26:26.277Z,1.97
2019-02-10T16:28:56.378Z,1.10
2019-02-10T16:31:26.197Z,1.27
2019-02-10T16:33:56.098Z,4.23
2019-02-10T16:36:26.162Z,1.37
2019-02-10T16:38:56.230Z,1.03
2019-02-10T16:41:26.097Z,1.40
2019-02-10T16:43:55.939Z,1.00
2019-02-10T16:46:25.808Z,1.00
2019-02-10T16:48:55.840Z,1.03
2019-02-10T16:51:25.953Z,1.10
2019-02-10T16:53:56.107Z,1.63
2019-02-10T16:56:25.925Z,2.30
2019-02-10T16:58:56.241Z,1.03
2019-02-10T17:01:26.108Z,2.57
2019-02-10T17:03:56.443Z,5.07
2019-02-10T17:06:26.567Z,2.90
2019-02-10T17:08:57.081Z,2.13
2019-02-10T17:11:27.155Z,5.73
2019-02-10T17:13:57.003Z,1.30
2019-02-10T17:16:27.221Z,1.30
2019-02-10T17:18:57.313Z,1.33
2019-02-10T17:21:27.172Z,1.03
2019-02-10T17:23:57.010Z,2.97
2019-02-10T17:26:27.082Z,1.30
2019-02-10T17:28:56.954Z,2.40
2019-02-10T17:31:26.799Z,1.13
2019-02-10T17:33:56.816Z,2.50
2019-02-10T17:36:26.672Z,0.80
2019-02-10T17:38:58.139Z,3.70
2019-02-10T17:41:36.488Z,4.67
2019-02-10T17:44:06.651Z,2.40
2019-02-10T17:46:36.478Z,0.53
2019-02-10T17:49:06.348Z,1.30
2019-02-10T17:51:36.221Z,3.47
2019-02-10T17:54:06.109Z,2.07
2019-02-10T17:56:35.959Z,1.70
2019-02-10T17:59:05.866Z,1.90
2019-02-10T18:01:35.951Z,2.00
2019-02-10T18:04:06.318Z,0.80
2019-02-10T18:06:36.473Z,0.50
2019-02-10T18:09:07.955Z,0.60
2019-02-10T18:11:37.793Z,0.60
2019-02-10T18:14:35.591Z,0.60
2019-02-10T18:17:16.729Z,1.10
2019-02-10T18:19:57.511Z,0.40
2019-02-10T18:22:46.541Z,0.50
2019-02-10T18:25:29.232Z,0.40
2019-02-10T18:28:24.350Z,0.50
2019-02-10T18:31:12.410Z,0.70
2019-02-10T18:33:48.395Z,0.50
2019-02-10T18:36:36.113Z,2.87
2019-02-10T18:39:14.148Z,0.60
2019-02-10T18:41:56.895Z,2.00
2019-02-10T18:44:44.438Z,1.67
2019-02-10T18:47:24.148Z,1.60
2019-02-10T18:50:11.376Z,1.77
2019-02-10T18:52:48.684Z,1.13
2019-02-10T18:55:36.413Z,3.90
2019-02-10T18:58:43.401Z,0.73
2019-02-10T19:01:40.949Z,0.70
2019-02-10T19:04:22.387Z,0.97
2019-02-10T19:06:59.383Z,0.97
2019-02-10T19:09:52.810Z,0.50
2019-02-10T19:12:30.090Z,1.40
2019-02-10T19:15:16.902Z,1.60
2019-02-10T19:18:06.004Z,2.37
2019-02-10T19:20:53.593Z,1.07
2019-02-10T19:23:41.097Z,3.27
2019-02-10T19:26:28.889Z,1.57
2019-02-10T19:29:18.264Z,1.00
2019-02-10T19:31:57.407Z,8.73
2019-02-10T19:34:39.891Z,0.77
2019-02-10T19:37:27.495Z,0.50
2019-02-10T19:40:12.590Z,1.43
2019-02-10T19:42:49.312Z,0.77
2019-02-10T19:45:34.848Z,0.50
2019-02-10T19:48:16.446Z,0.40
2019-02-10T19:50:57.377Z,0.40
2019-02-10T19:53:38.387Z,0.40
2019-02-10T19:56:14.340Z,0.50
2019-02-10T19:58:52.253Z,0.40
2019-02-10T20:01:41.524Z,1.60
2019-02-10T20:04:31.588Z,0.53
2019-02-10T20:07:11.720Z,0.40
2019-02-10T20:09:48.996Z,0.80
2019-02-10T20:12:38.054Z,0.40
2019-02-10T20:15:17.896Z,0.57
2019-02-10T20:18:09.899Z,0.50
2019-02-10T20:20:58.946Z,0.40
2019-02-10T20:23:59.918Z,0.50
2019-02-10T20:26:57.803Z,0.83
2019-02-10T20:29:46.617Z,0.40
2019-02-10T20:32:44.837Z,0.40
2019-02-10T20:35:36.862Z,0.70
2019-02-10T20:38:25.888Z,0.40
2019-02-10T20:41:32.681Z,0.40
2019-02-10T20:44:15.994Z,0.70
2019-02-10T20:47:11.093Z,1.47
2019-02-10T20:49:47.862Z,0.40
2019-02-10T20:52:32.851Z,0.63
2019-02-10T20:55:13.584Z,0.97
2019-02-10T20:57:58.807Z,0.40
2019-02-10T21:00:38.456Z,0.40
2019-02-10T21:03:14.464Z,0.70
2019-02-10T21:06:15.493Z,0.40
2019-02-10T21:08:55.802Z,0.60
2019-02-10T21:11:56.557Z,0.37
2019-02-10T21:14:39.955Z,0.30
2019-02-10T21:17:34.262Z,0.40
2019-02-10T21:20:21.905Z,0.40
2019-02-10T21:23:06.722Z,0.40
2019-02-10T21:25:53.171Z,2.10
2019-02-10T21:28:42.294Z,0.43
2019-02-10T21:31:27.122Z,0.53
2019-02-10T21:34:14.896Z,0.40
2019-02-10T21:36:50.087Z,0.50
2019-02-10T21:39:37.698Z,0.30
2019-02-10T21:42:32.642Z,0.50
2019-02-10T21:45:19.569Z,0.40
2019-02-10T21:47:54.295Z,0.87
2019-02-10T21:50:24.255Z,0.40
2019-02-10T21:52:54.158Z,0.43
2019-02-10T21:55:24.031Z,0.40
2019-02-10T21:57:54.229Z,0.40
2019-02-10T22:00:24.366Z,0.40
2019-02-10T22:02:54.508Z,0.60
2019-02-10T22:05:24.340Z,0.50
2019-02-10T22:07:54.176Z,0.40
2019-02-10T22:10:24.048Z,0.30
2019-02-10T22:12:53.922Z,0.63
2019-02-10T22:15:23.759Z,0.40
2019-02-10T22:17:53.933Z,0.40
2019-02-10T22:20:23.842Z,0.40
2019-02-10T22:22:53.720Z,0.50
2019-02-10T22:25:24.075Z,0.40
2019-02-10T22:27:54.154Z,0.80
2019-02-10T22:30:24.051Z,0.50
2019-02-10T22:32:53.886Z,0.50
2019-02-10T22:35:24.027Z,1.83
2019-02-10T22:37:54.347Z,0.40
2019-02-10T22:40:24.449Z,0.50
2019-02-10T22:42:54.603Z,0.40
2019-02-10T22:45:24.800Z,0.47
2019-02-10T22:47:54.671Z,0.37
2019-02-10T22:50:24.549Z,0.40
2019-02-10T22:52:54.443Z,4.70
2019-02-10T22:55:24.558Z,0.40
2019-02-10T22:57:54.672Z,0.40
2019-02-10T23:00:47.560Z,0.40
2019-02-10T23:03:18.254Z,0.50
2019-02-10T23:05:48.594Z,0.60
2019-02-10T23:08:18.415Z,0.90
2019-02-10T23:10:48.297Z,0.70
2019-02-10T23:13:18.265Z,0.50
2019-02-10T23:15:48.264Z,0.80
2019-02-10T23:18:18.345Z,0.87
2019-02-10T23:20:48.701Z,0.80
2019-02-10T23:23:18.619Z,1.37
2019-02-10T23:25:48.726Z,2.67
2019-02-10T23:28:18.582Z,0.90
2019-02-10T23:30:48.465Z,0.57
2019-02-10T23:33:18.579Z,0.50
2019-02-10T23:35:48.457Z,0.70
2019-02-10T23:38:18.316Z,0.93
2019-02-10T23:40:48.213Z,0.50
2019-02-10T23:43:18.087Z,0.57
2019-02-10T23:45:47.998Z,0.60
2019-02-10T23:48:18.109Z,1.57
2019-02-10T23:50:48.511Z,1.37
2019-02-10T23:53:18.662Z,1.30
2019-02-10T23:55:48.513Z,0.80
2019-02-10T23:58:18.607Z,0.80
